Time;durP1;ratioP1;P1;durP2;ratioP2;P2;SDS_P1;SDS_P2;PMS_P1;PMS_P2;Temp;Humidity;BMP_temperature;BMP_pressure;BME280_temperature;BME280_humidity;BME280_pressure;Samples;Min_cycle;Max_cycle;Signal;HPM_P1;HPM_P2
2023/12/15 00:02:22;;;;;;;20.00;13.03;;;5.90;99.90;;;;;;4988461;28;20215;-72
2023/12/15 00:04:48;;;;;;;22.93;14.67;;;5.90;99.90;;;;;;4990191;28;20186;-72
2023/12/15 00:07:13;;;;;;;20.33;12.93;;;5.90;99.90;;;;;;4987782;28;20196;-72
2023/12/15 00:09:39;;;;;;;20.53;13.90;;;5.80;99.90;;;;;;4986955;28;20242;-72
2023/12/15 00:12:05;;;;;;;20.60;13.27;;;5.80;99.90;;;;;;4990135;28;20188;-72
2023/12/15 00:14:30;;;;;;;20.93;13.87;;;5.80;99.90;;;;;;4989337;28;20199;-72
2023/12/15 00:16:56;;;;;;;23.40;15.20;;;5.80;99.90;;;;;;4989986;28;20810;-72
2023/12/15 00:19:22;;;;;;;21.97;14.30;;;5.80;99.90;;;;;;4989969;28;20564;-72
2023/12/15 00:21:47;;;;;;;27.37;14.57;;;5.80;99.90;;;;;;4992425;28;20184;-72
2023/12/15 00:24:13;;;;;;;21.77;13.67;;;5.80;99.90;;;;;;4990443;28;20823;-72
2023/12/15 00:26:38;;;;;;;20.33;13.77;;;5.80;99.90;;;;;;4988530;28;20196;-72
2023/12/15 00:29:04;;;;;;;19.27;12.40;;;5.80;99.90;;;;;;4989602;28;20184;-72
2023/12/15 00:31:30;;;;;;;22.63;13.27;;;5.80;99.90;;;;;;4989422;28;20200;-72
2023/12/15 00:33:56;;;;;;;21.00;13.93;;;5.80;99.90;;;;;;4997334;28;20187;-72
2023/12/15 00:36:21;;;;;;;22.17;13.83;;;5.80;99.90;;;;;;4992988;28;20219;-72
2023/12/15 00:38:47;;;;;;;20.10;14.03;;;5.80;99.90;;;;;;4991295;28;20754;-72
2023/12/15 00:41:13;;;;;;;21.30;13.20;;;5.80;99.90;;;;;;4988800;28;20227;-73
2023/12/15 00:43:38;;;;;;;21.20;13.63;;;5.80;99.90;;;;;;4989285;28;20191;-72
2023/12/15 00:46:04;;;;;;;20.47;13.93;;;5.80;99.90;;;;;;4989482;28;20768;-74
2023/12/15 00:48:30;;;;;;;21.70;13.77;;;5.90;99.90;;;;;;4987890;28;20198;-72
2023/12/15 00:50:55;;;;;;;19.90;14.43;;;5.90;99.90;;;;;;4989866;28;20233;-72
2023/12/15 00:53:21;;;;;;;22.60;14.07;;;5.90;99.90;;;;;;4989578;28;20215;-72
2023/12/15 00:55:47;;;;;;;23.77;15.13;;;6.00;99.90;;;;;;4988491;28;20229;-72
2023/12/15 00:58:15;;;;;;;20.80;13.67;;;6.00;99.90;;;;;;4989515;28;20669;-72
2023/12/15 01:00:41;;;;;;;23.80;15.17;;;6.00;99.90;;;;;;4988221;28;20215;-72
2023/12/15 01:03:07;;;;;;;20.93;15.07;;;6.00;99.90;;;;;;4989753;28;20438;-72
2023/12/15 01:05:32;;;;;;;23.80;14.73;;;6.00;99.90;;;;;;4986913;28;20248;-72
2023/12/15 01:07:58;;;;;;;21.27;14.93;;;6.00;99.90;;;;;;4986506;28;20440;-72
2023/12/15 01:10:24;;;;;;;23.13;14.40;;;6.00;99.90;;;;;;4991622;28;20278;-73
2023/12/15 01:12:49;;;;;;;26.63;14.27;;;6.00;99.90;;;;;;4996859;28;20262;-72
2023/12/15 01:15:15;;;;;;;27.73;16.17;;;6.00;99.90;;;;;;4994686;28;20187;-72
2023/12/15 01:17:41;;;;;;;23.73;15.67;;;6.00;99.90;;;;;;4997955;28;20184;-72
2023/12/15 01:20:10;;;;;;;22.43;14.50;;;6.10;99.90;;;;;;4996535;28;20273;-72
2023/12/15 01:22:35;;;;;;;23.10;15.33;;;6.10;99.90;;;;;;4998248;28;20192;-72
2023/12/15 01:25:01;;;;;;;20.40;14.43;;;6.10;99.90;;;;;;4995686;28;20515;-72
2023/12/15 01:27:27;;;;;;;22.80;16.03;;;6.10;99.90;;;;;;4997177;28;20443;-72
2023/12/15 01:29:52;;;;;;;20.17;14.20;;;6.10;99.90;;;;;;4990116;28;20265;-72
2023/12/15 01:32:18;;;;;;;22.63;15.47;;;6.10;99.90;;;;;;4992556;28;20758;-72
2023/12/15 01:34:44;;;;;;;24.10;15.23;;;6.10;99.90;;;;;;4997404;28;20210;-72
2023/12/15 01:37:09;;;;;;;23.87;15.07;;;6.10;99.90;;;;;;4996312;28;20211;-72
2023/12/15 01:39:35;;;;;;;22.17;14.20;;;6.10;99.90;;;;;;4998426;28;20610;-72
2023/12/15 01:42:01;;;;;;;22.37;13.90;;;6.20;99.90;;;;;;4996641;28;20223;-72
2023/12/15 01:44:26;;;;;;;22.57;14.63;;;6.20;99.90;;;;;;4996930;28;20225;-71
2023/12/15 01:46:52;;;;;;;20.97;14.87;;;6.20;99.90;;;;;;4996383;28;20195;-72
2023/12/15 01:49:18;;;;;;;20.07;13.57;;;6.20;99.90;;;;;;4994154;28;20187;-72
2023/12/15 01:51:43;;;;;;;21.33;14.30;;;6.20;99.90;;;;;;4998803;28;20258;-72
2023/12/15 01:54:09;;;;;;;26.60;15.83;;;6.20;99.90;;;;;;4996600;28;20181;-72
2023/12/15 01:56:36;;;;;;;19.50;13.60;;;6.20;99.90;;;;;;4998360;28;20187;-72
2023/12/15 01:59:01;;;;;;;20.23;15.00;;;6.20;99.90;;;;;;4996477;28;20188;-72
2023/12/15 02:01:27;;;;;;;22.60;14.57;;;6.20;99.90;;;;;;4998201;28;20443;-72
2023/12/15 02:03:52;;;;;;;24.97;15.87;;;6.30;99.90;;;;;;4996525;28;20219;-72
2023/12/15 02:06:18;;;;;;;22.80;14.00;;;6.30;99.90;;;;;;4994516;28;20191;-72
2023/12/15 02:08:44;;;;;;;23.63;14.57;;;6.30;99.90;;;;;;4999040;28;20270;-72
2023/12/15 02:11:10;;;;;;;21.77;14.53;;;6.30;99.90;;;;;;4995936;28;20246;-72
2023/12/15 02:13:36;;;;;;;22.13;15.17;;;6.30;99.90;;;;;;4997275;28;20458;-73
2023/12/15 02:16:02;;;;;;;26.07;16.63;;;6.30;99.90;;;;;;4993915;28;20540;-72
2023/12/15 02:18:27;;;;;;;20.93;13.60;;;6.30;99.90;;;;;;4987425;28;20298;-72
2023/12/15 02:20:53;;;;;;;24.77;15.87;;;6.30;99.90;;;;;;4996183;28;20700;-72
2023/12/15 02:23:19;;;;;;;21.70;14.40;;;6.30;99.90;;;;;;4995409;28;20190;-72
2023/12/15 02:25:44;;;;;;;19.40;15.10;;;6.30;99.90;;;;;;4996283;28;20183;-71
2023/12/15 02:28:10;;;;;;;22.70;14.57;;;6.30;99.90;;;;;;4996260;28;20951;-73
2023/12/15 02:30:35;;;;;;;19.33;13.90;;;6.40;99.90;;;;;;5001254;28;20669;-73
2023/12/15 02:33:01;;;;;;;22.00;15.30;;;6.30;99.90;;;;;;5001787;28;20207;-72
2023/12/15 02:35:27;;;;;;;23.10;15.90;;;6.40;99.90;;;;;;5002057;28;20314;-72
2023/12/15 02:37:52;;;;;;;21.57;14.90;;;6.40;99.90;;;;;;5000156;28;20212;-73
2023/12/15 02:40:18;;;;;;;24.60;14.57;;;6.40;99.90;;;;;;4998968;28;20244;-73
2023/12/15 02:42:44;;;;;;;24.40;14.50;;;6.40;99.90;;;;;;5002820;28;20232;-72
2023/12/15 02:45:09;;;;;;;20.10;15.30;;;6.40;99.90;;;;;;4999573;28;20187;-72
2023/12/15 02:47:35;;;;;;;24.00;14.67;;;6.40;99.90;;;;;;5001251;28;20195;-72
2023/12/15 02:50:01;;;;;;;23.17;16.03;;;6.40;99.90;;;;;;4990389;28;20192;-72
2023/12/15 02:52:27;;;;;;;21.87;14.93;;;6.50;99.90;;;;;;4998212;28;20191;-72
2023/12/15 02:54:52;;;;;;;21.80;15.27;;;6.50;99.90;;;;;;4999685;28;20433;-72
2023/12/15 02:57:18;;;;;;;20.97;14.13;;;6.50;99.90;;;;;;4999164;28;20740;-72
2023/12/15 02:59:44;;;;;;;21.90;15.47;;;6.50;99.90;;;;;;4986937;28;20254;-73
2023/12/15 03:02:09;;;;;;;25.37;15.80;;;6.50;99.90;;;;;;4999267;28;20301;-72
2023/12/15 03:04:35;;;;;;;22.53;15.50;;;6.60;99.90;;;;;;5002194;28;20650;-72
2023/12/15 03:07:01;;;;;;;23.10;14.97;;;6.60;99.90;;;;;;4999955;28;20279;-72
2023/12/15 03:09:26;;;;;;;20.20;15.30;;;6.60;99.90;;;;;;4992207;28;20195;-72
2023/12/15 03:11:52;;;;;;;22.20;16.00;;;6.60;99.90;;;;;;4995640;28;20187;-72
2023/12/15 03:14:18;;;;;;;24.63;15.00;;;6.60;99.90;;;;;;4999219;28;20190;-72
2023/12/15 03:16:44;;;;;;;20.57;14.47;;;6.60;99.90;;;;;;5002685;28;20242;-72
2023/12/15 03:19:09;;;;;;;20.67;14.47;;;6.60;99.90;;;;;;4998115;28;20472;-72
2023/12/15 03:21:35;;;;;;;19.00;14.77;;;6.60;99.90;;;;;;5002826;28;20279;-72
2023/12/15 03:24:00;;;;;;;20.60;14.80;;;6.60;99.90;;;;;;4999849;28;20650;-74
2023/12/15 03:26:26;;;;;;;19.77;14.97;;;6.60;99.90;;;;;;4998955;28;20291;-72
2023/12/15 03:28:53;;;;;;;21.83;15.70;;;6.60;99.90;;;;;;4993240;28;20191;-73
2023/12/15 03:31:18;;;;;;;20.70;14.83;;;6.60;99.90;;;;;;4993254;28;20196;-72
2023/12/15 03:33:45;;;;;;;20.50;15.07;;;6.70;99.90;;;;;;4992521;28;21009;-72
2023/12/15 03:36:10;;;;;;;20.63;14.27;;;6.60;99.90;;;;;;4990579;28;20737;-73
2023/12/15 03:38:36;;;;;;;19.67;14.87;;;6.70;99.90;;;;;;4992939;28;20454;-72
2023/12/15 03:41:02;;;;;;;22.07;14.17;;;6.70;99.90;;;;;;4991080;28;20356;-72
2023/12/15 03:43:27;;;;;;;18.00;14.27;;;6.70;99.90;;;;;;4992469;28;20184;-72
2023/12/15 03:45:53;;;;;;;21.27;14.80;;;6.70;99.90;;;;;;4990858;28;20793;-72
2023/12/15 03:48:18;;;;;;;21.20;15.20;;;6.70;99.90;;;;;;4990050;28;20645;-72
2023/12/15 03:50:44;;;;;;;21.23;14.93;;;6.70;99.90;;;;;;4991957;28;20192;-72
2023/12/15 03:53:10;;;;;;;21.47;15.23;;;6.70;99.90;;;;;;4991504;28;20263;-72
2023/12/15 03:55:36;;;;;;;20.80;15.17;;;6.70;99.90;;;;;;4991683;28;20242;-72
2023/12/15 03:58:01;;;;;;;20.50;15.43;;;6.80;99.90;;;;;;4992422;28;20224;-72
2023/12/15 04:00:28;;;;;;;21.63;16.00;;;6.80;99.90;;;;;;4992804;28;20686;-72
2023/12/15 04:02:54;;;;;;;17.70;13.60;;;6.80;99.90;;;;;;4992921;28;20262;-72
2023/12/15 04:05:20;;;;;;;20.07;14.50;;;6.80;99.90;;;;;;4991935;28;20521;-72
2023/12/15 04:07:46;;;;;;;21.90;15.47;;;6.80;99.90;;;;;;4992832;28;20186;-72
2023/12/15 04:10:11;;;;;;;26.53;15.60;;;6.80;99.90;;;;;;4992057;28;21086;-72
2023/12/15 04:12:37;;;;;;;18.37;14.70;;;6.80;99.90;;;;;;4991768;28;20261;-72
2023/12/15 04:15:04;;;;;;;21.57;15.20;;;6.80;99.90;;;;;;4992145;28;20700;-73
2023/12/15 04:17:29;;;;;;;20.47;14.00;;;6.80;99.90;;;;;;4992651;28;20807;-72
2023/12/15 04:19:55;;;;;;;21.63;15.10;;;6.80;99.90;;;;;;4991831;28;20559;-72
2023/12/15 04:22:22;;;;;;;20.63;14.20;;;6.90;99.90;;;;;;4990416;28;20725;-72
2023/12/15 04:24:49;;;;;;;20.63;14.57;;;6.90;99.90;;;;;;4975937;28;20191;-72
2023/12/15 04:27:14;;;;;;;19.80;14.20;;;6.90;99.90;;;;;;4992485;28;20780;-73
2023/12/15 04:29:40;;;;;;;20.40;15.60;;;6.90;99.90;;;;;;4993164;28;20434;-73
2023/12/15 04:32:06;;;;;;;20.70;14.67;;;6.90;99.90;;;;;;4994302;28;20251;-72
2023/12/15 04:34:33;;;;;;;23.73;15.27;;;6.90;99.90;;;;;;4993228;28;20721;-73
2023/12/15 04:36:59;;;;;;;22.97;15.17;;;6.90;99.90;;;;;;4994347;28;20435;-73
2023/12/15 04:39:25;;;;;;;22.73;16.10;;;6.90;99.90;;;;;;4993581;28;20497;-72
2023/12/15 04:41:50;;;;;;;24.00;15.10;;;6.90;99.90;;;;;;4989414;28;20484;-72
2023/12/15 04:44:16;;;;;;;24.93;15.70;;;6.90;99.90;;;;;;4991810;28;20184;-73
2023/12/15 04:46:42;;;;;;;21.97;15.50;;;6.90;99.90;;;;;;4993296;28;20187;-72
2023/12/15 04:49:08;;;;;;;24.17;16.93;;;6.90;99.90;;;;;;4990438;28;20187;-72
2023/12/15 04:51:34;;;;;;;23.83;15.60;;;6.90;99.90;;;;;;4993015;28;20689;-72
2023/12/15 04:53:59;;;;;;;22.97;14.80;;;7.00;99.90;;;;;;4991875;28;20437;-72
2023/12/15 04:56:25;;;;;;;18.43;14.20;;;7.00;99.90;;;;;;4993538;28;20227;-73
2023/12/15 04:58:51;;;;;;;21.60;14.67;;;6.90;99.90;;;;;;4991714;28;20308;-72
2023/12/15 05:01:17;;;;;;;19.70;14.37;;;6.90;99.90;;;;;;4992354;28;20215;-72
2023/12/15 05:03:44;;;;;;;19.50;14.17;;;7.00;99.90;;;;;;4993570;28;20645;-72
2023/12/15 05:06:19;;;;;;;21.10;14.90;;;6.90;99.90;;;;;;4991795;28;20435;-72
2023/12/15 05:08:46;;;;;;;20.87;14.70;;;7.00;99.90;;;;;;4993082;28;20422;-72
2023/12/15 05:11:12;;;;;;;22.60;15.20;;;7.00;99.90;;;;;;4990719;28;20440;-72
2023/12/15 05:13:38;;;;;;;20.27;14.80;;;7.00;99.90;;;;;;4993909;28;20435;-72
2023/12/15 05:16:05;;;;;;;22.57;14.13;;;7.00;99.90;;;;;;4989975;28;20183;-73
2023/12/15 05:18:30;;;;;;;19.90;14.90;;;7.00;99.90;;;;;;4993717;28;20187;-72
2023/12/15 05:20:56;;;;;;;18.50;13.33;;;7.00;99.90;;;;;;4992119;28;20497;-73
2023/12/15 05:23:22;;;;;;;21.83;14.87;;;7.00;99.90;;;;;;4993518;28;20712;-72
2023/12/15 05:25:47;;;;;;;17.70;12.40;;;7.00;99.90;;;;;;4993096;28;20184;-72
2023/12/15 05:28:13;;;;;;;18.90;13.70;;;7.00;99.90;;;;;;4991937;28;20664;-72
2023/12/15 05:30:38;;;;;;;19.67;14.00;;;7.00;99.90;;;;;;4994211;28;20267;-73
2023/12/15 05:33:04;;;;;;;20.37;13.93;;;7.00;99.90;;;;;;4995007;28;20195;-72
2023/12/15 05:35:30;;;;;;;22.60;14.40;;;7.00;99.90;;;;;;4992909;28;20187;-72
2023/12/15 05:37:56;;;;;;;18.40;13.70;;;7.00;99.90;;;;;;4989898;28;20187;-72
2023/12/15 05:40:22;;;;;;;22.17;14.27;;;7.00;99.90;;;;;;4987964;28;20214;-72
2023/12/15 05:42:47;;;;;;;19.03;13.87;;;7.00;99.90;;;;;;4990266;28;20430;-73
2023/12/15 05:45:13;;;;;;;21.87;16.23;;;7.00;99.90;;;;;;4992157;28;20624;-72
2023/12/15 05:47:40;;;;;;;20.97;13.70;;;7.00;99.90;;;;;;4994508;28;20233;-72
2023/12/15 05:50:07;;;;;;;20.07;14.20;;;7.00;99.90;;;;;;4989229;28;20195;-72
2023/12/15 05:52:32;;;;;;;16.27;12.27;;;7.00;99.90;;;;;;4992122;28;20445;-72
2023/12/15 05:54:58;;;;;;;20.50;14.27;;;7.00;99.90;;;;;;4988180;28;20438;-72
2023/12/15 05:57:23;;;;;;;20.27;15.00;;;7.10;99.90;;;;;;4987044;28;20188;-74
2023/12/15 05:59:50;;;;;;;23.10;14.50;;;7.10;99.90;;;;;;4987507;28;20755;-72
2023/12/15 06:02:16;;;;;;;20.70;14.20;;;7.10;99.90;;;;;;4988228;28;20559;-73
2023/12/15 06:04:41;;;;;;;22.17;14.27;;;7.10;99.90;;;;;;4986443;28;20549;-72
2023/12/15 06:07:07;;;;;;;19.47;14.33;;;7.00;99.90;;;;;;4976980;28;20445;-73
2023/12/15 06:09:35;;;;;;;24.70;15.30;;;7.00;99.90;;;;;;4993840;28;20188;-72
2023/12/15 06:12:01;;;;;;;23.73;14.87;;;7.10;99.90;;;;;;4993186;28;20544;-73
2023/12/15 06:14:26;;;;;;;22.30;15.57;;;7.10;99.90;;;;;;4994085;28;20435;-72
2023/12/15 06:16:52;;;;;;;25.50;16.57;;;7.10;99.90;;;;;;4996309;28;20187;-72
2023/12/15 06:19:18;;;;;;;23.20;14.90;;;7.10;99.90;;;;;;4991656;28;20247;-71
2023/12/15 06:21:43;;;;;;;23.30;15.00;;;7.10;99.90;;;;;;4996258;28;20187;-73
2023/12/15 06:24:09;;;;;;;28.57;16.20;;;7.10;99.90;;;;;;4994567;28;20199;-73
2023/12/15 06:26:35;;;;;;;25.23;15.27;;;7.10;99.90;;;;;;4998306;28;20219;-73
2023/12/15 06:29:00;;;;;;;21.70;15.37;;;7.10;99.90;;;;;;4995858;28;20839;-72
2023/12/15 06:31:27;;;;;;;24.40;15.60;;;7.10;99.90;;;;;;4999481;28;20203;-73
2023/12/15 06:33:53;;;;;;;25.53;16.07;;;7.10;99.90;;;;;;4996680;28;20180;-73
2023/12/15 06:36:19;;;;;;;22.97;16.63;;;7.10;99.90;;;;;;4995367;28;20468;-73
2023/12/15 06:38:45;;;;;;;26.13;15.60;;;7.10;99.90;;;;;;4996253;28;20436;-73
2023/12/15 06:41:13;;;;;;;23.30;15.73;;;7.20;99.90;;;;;;4995871;28;20231;-73
2023/12/15 06:43:42;;;;;;;22.77;15.70;;;7.20;99.90;;;;;;4995830;28;20228;-73
2023/12/15 06:46:08;;;;;;;23.43;15.73;;;7.20;99.90;;;;;;4997086;28;20427;-73
2023/12/15 06:48:34;;;;;;;23.73;15.77;;;7.20;99.90;;;;;;4993939;28;20489;-73
2023/12/15 06:51:00;;;;;;;29.40;18.23;;;7.20;99.90;;;;;;4991110;28;20442;-73
2023/12/15 06:53:26;;;;;;;28.20;17.30;;;7.20;99.90;;;;;;4992254;28;21298;-72
2023/12/15 06:55:52;;;;;;;26.20;16.97;;;7.10;99.90;;;;;;4990706;28;20475;-72
2023/12/15 06:58:18;;;;;;;27.13;16.93;;;7.20;99.90;;;;;;4991178;28;20894;-72
2023/12/15 07:00:44;;;;;;;30.17;17.93;;;7.20;99.90;;;;;;4989858;28;20224;-73
2023/12/15 07:03:09;;;;;;;27.87;17.20;;;7.20;99.90;;;;;;4990365;28;20427;-73
2023/12/15 07:05:35;;;;;;;29.83;16.70;;;7.20;99.90;;;;;;4995270;28;20721;-72
2023/12/15 07:08:02;;;;;;;25.80;15.97;;;7.20;99.90;;;;;;4996235;28;20662;-72
2023/12/15 07:10:27;;;;;;;27.97;16.83;;;7.20;99.90;;;;;;4990952;28;20211;-72
2023/12/15 07:12:53;;;;;;;27.10;15.93;;;7.20;99.90;;;;;;4993370;28;20435;-72
2023/12/15 07:15:18;;;;;;;28.03;18.23;;;7.30;99.90;;;;;;4990334;28;20682;-72
2023/12/15 07:17:45;;;;;;;24.93;16.37;;;7.30;99.90;;;;;;4991357;28;20180;-72
2023/12/15 07:20:10;;;;;;;27.70;16.00;;;7.30;99.90;;;;;;4990689;28;20728;-72
2023/12/15 07:22:36;;;;;;;26.63;15.93;;;7.30;99.90;;;;;;4988554;28;20443;-72
2023/12/15 07:25:02;;;;;;;28.07;18.07;;;7.30;99.90;;;;;;4989310;28;20239;-72
2023/12/15 07:27:28;;;;;;;28.60;17.00;;;7.30;99.90;;;;;;4989142;28;20474;-72
2023/12/15 07:29:54;;;;;;;34.23;17.90;;;7.30;99.90;;;;;;4990224;28;21060;-72
2023/12/15 07:32:20;;;;;;;32.50;18.07;;;7.30;99.90;;;;;;4989911;28;20880;-72
2023/12/15 07:34:46;;;;;;;29.20;17.93;;;7.30;99.90;;;;;;4987909;28;21065;-74
2023/12/15 07:37:12;;;;;;;25.33;16.80;;;7.30;99.90;;;;;;4972808;28;20430;-73
2023/12/15 07:39:38;;;;;;;29.70;16.97;;;7.30;99.90;;;;;;5089687;27;20684;-72
2023/12/15 07:42:04;;;;;;;27.80;17.70;;;7.30;99.90;;;;;;4995331;28;20226;-72
2023/12/15 07:44:30;;;;;;;29.57;17.67;;;7.30;99.90;;;;;;4995580;28;20427;-72
2023/12/15 07:46:55;;;;;;;32.60;18.93;;;7.30;99.90;;;;;;4991719;28;20418;-73
2023/12/15 07:49:22;;;;;;;31.80;19.70;;;7.30;99.90;;;;;;4995561;28;20200;-73
2023/12/15 07:51:49;;;;;;;29.40;17.63;;;7.30;99.90;;;;;;4993132;28;20188;-73
2023/12/15 07:54:15;;;;;;;31.83;18.43;;;7.30;99.90;;;;;;4993897;28;20430;-73
2023/12/15 07:56:41;;;;;;;29.57;17.37;;;7.30;99.90;;;;;;4995089;28;20438;-72
2023/12/15 07:59:08;;;;;;;29.43;18.93;;;7.30;99.90;;;;;;4995794;28;20769;-72
2023/12/15 08:01:34;;;;;;;26.47;16.97;;;7.30;99.90;;;;;;4998430;28;20783;-73
2023/12/15 08:04:03;;;;;;;34.83;18.47;;;7.30;99.90;;;;;;4994984;28;20431;-72
2023/12/15 08:06:28;;;;;;;32.07;18.27;;;7.30;99.90;;;;;;4977857;28;20432;-71
2023/12/15 08:08:54;;;;;;;32.03;18.13;;;7.30;99.90;;;;;;4996228;28;20903;-74
2023/12/15 08:11:20;;;;;;;29.10;17.70;;;7.40;99.90;;;;;;4997689;28;20192;-71
2023/12/15 08:13:46;;;;;;;28.67;16.73;;;7.40;99.90;;;;;;4997698;28;20274;-71
2023/12/15 08:16:12;;;;;;;30.80;18.60;;;7.40;99.90;;;;;;4994097;28;20435;-71
2023/12/15 08:18:39;;;;;;;30.97;18.97;;;7.30;99.90;;;;;;4982292;28;20422;-71
2023/12/15 08:21:05;;;;;;;29.87;17.47;;;7.40;99.90;;;;;;4996402;28;20207;-73
2023/12/15 08:23:31;;;;;;;28.97;17.37;;;7.40;99.90;;;;;;4998768;28;20808;-73
2023/12/15 08:25:56;;;;;;;30.57;16.10;;;7.40;99.90;;;;;;4996037;28;20558;-73
2023/12/15 08:28:22;;;;;;;31.20;19.83;;;7.40;99.90;;;;;;4997064;28;20175;-74
2023/12/15 08:30:49;;;;;;;30.63;18.13;;;7.40;99.90;;;;;;4995588;28;20176;-74
2023/12/15 08:33:15;;;;;;;29.00;16.60;;;7.40;99.90;;;;;;4993722;28;20199;-73
2023/12/15 08:35:41;;;;;;;26.43;18.10;;;7.40;99.90;;;;;;4999037;28;20783;-73
2023/12/15 08:38:06;;;;;;;29.17;18.90;;;7.40;99.90;;;;;;4996760;28;20426;-75
2023/12/15 08:40:32;;;;;;;30.27;18.67;;;7.40;99.90;;;;;;4998234;28;20554;-71
2023/12/15 08:42:58;;;;;;;29.40;17.33;;;7.50;99.90;;;;;;4995834;28;20187;-72
2023/12/15 08:45:24;;;;;;;32.10;18.40;;;7.40;99.90;;;;;;4998295;28;20179;-71
2023/12/15 08:47:49;;;;;;;31.00;18.30;;;7.40;99.90;;;;;;4997049;28;20187;-71
2023/12/15 08:50:15;;;;;;;38.00;18.67;;;7.50;99.90;;;;;;4996368;28;20187;-75
2023/12/15 08:52:41;;;;;;;34.93;18.60;;;7.50;99.90;;;;;;4999393;28;20388;-72
2023/12/15 08:55:07;;;;;;;34.97;18.93;;;7.50;99.90;;;;;;4996642;28;20186;-72
2023/12/15 08:57:33;;;;;;;36.93;18.80;;;7.50;99.90;;;;;;4997743;28;20233;-71
2023/12/15 08:59:59;;;;;;;29.13;18.53;;;7.50;99.90;;;;;;4995853;28;21031;-71
2023/12/15 09:02:28;;;;;;;36.43;19.03;;;7.50;99.90;;;;;;4997709;28;20422;-73
2023/12/15 09:04:53;;;;;;;29.13;18.20;;;7.50;99.90;;;;;;4993077;28;20437;-73
2023/12/15 09:07:19;;;;;;;34.63;17.80;;;7.60;99.90;;;;;;4979194;28;20442;-72
2023/12/15 09:09:45;;;;;;;29.07;16.70;;;7.60;99.90;;;;;;4998480;28;20240;-74
2023/12/15 09:12:11;;;;;;;34.90;19.40;;;7.60;99.90;;;;;;4996647;28;20522;-72
2023/12/15 09:14:37;;;;;;;34.73;18.10;;;7.60;99.90;;;;;;4999334;28;20179;-74
2023/12/15 09:17:03;;;;;;;30.53;17.00;;;7.60;99.90;;;;;;4996473;28;20450;-72
2023/12/15 09:19:30;;;;;;;34.20;18.40;;;7.60;99.90;;;;;;4998863;28;20832;-73
2023/12/15 09:21:55;;;;;;;36.97;18.77;;;7.70;99.90;;;;;;4992342;28;20963;-73
2023/12/15 09:24:22;;;;;;;32.80;18.30;;;7.70;99.90;;;;;;4998178;28;20433;-72
2023/12/15 09:26:48;;;;;;;39.57;19.90;;;7.70;99.90;;;;;;4996824;28;20184;-73
2023/12/15 09:29:14;;;;;;;36.47;20.23;;;7.70;99.90;;;;;;4996632;28;20522;-74
2023/12/15 09:31:40;;;;;;;30.53;17.60;;;7.70;99.90;;;;;;4998691;28;20430;-73
2023/12/15 09:34:06;;;;;;;36.83;18.77;;;7.70;99.90;;;;;;4995432;28;20788;-75
2023/12/15 09:36:32;;;;;;;36.33;18.53;;;7.70;99.90;;;;;;4999203;28;20432;-74
2023/12/15 09:38:58;;;;;;;34.13;19.17;;;7.70;99.90;;;;;;4996269;28;20179;-73
2023/12/15 09:41:24;;;;;;;37.70;20.40;;;7.70;99.90;;;;;;4995676;28;20465;-71
2023/12/15 09:43:50;;;;;;;40.73;19.80;;;7.70;99.90;;;;;;4997041;28;20273;-73
2023/12/15 09:46:16;;;;;;;36.90;19.23;;;7.70;99.90;;;;;;4980504;28;20804;-74
2023/12/15 09:48:45;;;;;;;38.47;20.53;;;7.70;99.90;;;;;;4999464;28;20529;-73
2023/12/15 09:51:17;;;;;;;38.67;21.10;;;7.70;99.90;;;;;;4993333;28;20474;-74
2023/12/15 09:53:46;;;;;;;39.77;20.20;;;7.70;99.90;;;;;;4982724;28;20427;-73
2023/12/15 09:56:12;;;;;;;39.60;20.47;;;7.80;99.90;;;;;;4996784;28;20418;-72
2023/12/15 09:58:38;;;;;;;40.37;20.47;;;7.80;99.90;;;;;;4999996;28;20466;-73
2023/12/15 10:01:04;;;;;;;38.90;21.17;;;7.80;99.90;;;;;;4996465;28;20487;-73
2023/12/15 10:03:31;;;;;;;38.40;20.80;;;7.80;99.90;;;;;;4999855;28;20427;-71
2023/12/15 10:05:57;;;;;;;41.90;22.63;;;7.80;99.90;;;;;;4996427;28;20776;-74
2023/12/15 10:08:25;;;;;;;38.40;21.40;;;7.80;99.90;;;;;;4997349;28;20473;-74
2023/12/15 10:10:51;;;;;;;49.17;20.60;;;7.80;99.90;;;;;;4995967;28;20206;-73
2023/12/15 10:13:17;;;;;;;37.63;19.97;;;7.80;99.90;;;;;;4997463;28;20434;-72
2023/12/15 10:15:43;;;;;;;39.10;22.23;;;7.80;99.90;;;;;;4998675;28;20427;-72
2023/12/15 10:18:11;;;;;;;48.37;21.63;;;7.80;99.90;;;;;;5089717;28;20219;-74
2023/12/15 10:20:38;;;;;;;44.37;21.10;;;7.90;99.90;;;;;;4980130;28;20478;-72
2023/12/15 10:23:05;;;;;;;41.70;21.10;;;7.90;99.90;;;;;;4997056;28;20442;-77
2023/12/15 10:25:34;;;;;;;43.13;22.27;;;7.90;99.90;;;;;;4999532;28;20500;-73
2023/12/15 10:28:02;;;;;;;43.43;21.63;;;7.90;99.90;;;;;;4996267;28;20484;-73
2023/12/15 10:30:28;;;;;;;38.13;21.53;;;8.00;99.90;;;;;;4996851;28;20868;-74
2023/12/15 10:32:57;;;;;;;41.17;21.13;;;8.00;99.90;;;;;;4995909;28;20565;-71
2023/12/15 10:35:23;;;;;;;41.83;22.30;;;8.00;99.90;;;;;;4999058;28;20188;-74
2023/12/15 10:37:49;;;;;;;41.63;21.47;;;8.00;99.90;;;;;;4994105;28;20434;-70
2023/12/15 10:40:15;;;;;;;39.13;22.70;;;8.00;99.90;;;;;;4992098;28;20466;-73
2023/12/15 10:42:42;;;;;;;44.07;22.77;;;8.00;99.90;;;;;;4993701;28;20776;-72
2023/12/15 10:45:09;;;;;;;36.57;21.23;;;8.00;99.90;;;;;;4990978;28;20438;-74
2023/12/15 10:47:35;;;;;;;45.80;21.97;;;8.00;99.90;;;;;;4990379;28;20426;-73
2023/12/15 10:50:07;;;;;;;43.73;21.90;;;8.00;99.90;;;;;;4989623;28;20422;-72
2023/12/15 10:52:39;;;;;;;39.33;21.67;;;8.00;99.90;;;;;;4994199;28;20584;-72
2023/12/15 10:55:06;;;;;;;39.57;20.90;;;8.10;99.90;;;;;;4992960;28;20419;-72
2023/12/15 10:57:32;;;;;;;47.90;22.97;;;8.00;99.90;;;;;;4976763;28;20513;-74
2023/12/15 11:00:00;;;;;;;38.50;22.77;;;8.00;99.90;;;;;;4993600;28;20501;-74
2023/12/15 11:02:31;;;;;;;41.70;22.20;;;8.10;99.90;;;;;;4975604;28;20431;-74
2023/12/15 11:05:00;;;;;;;37.93;22.13;;;8.10;99.90;;;;;;4991848;28;20434;-74
2023/12/15 11:07:28;;;;;;;43.43;23.17;;;8.10;99.90;;;;;;4992773;28;20437;-73
2023/12/15 11:09:55;;;;;;;40.73;23.30;;;8.10;99.90;;;;;;4994208;28;20454;-76
2023/12/15 11:12:29;;;;;;;44.83;23.07;;;8.10;99.90;;;;;;4993435;28;20514;-71
2023/12/15 11:14:58;;;;;;;37.40;20.07;;;8.10;99.90;;;;;;4994092;28;20435;-72
2023/12/15 11:17:23;;;;;;;39.00;20.57;;;8.10;99.90;;;;;;4992684;28;20941;-72
2023/12/15 11:20:06;;;;;;;38.93;21.27;;;8.10;99.90;;;;;;4994611;28;20469;-73
2023/12/15 11:22:42;;;;;;;36.50;19.30;;;8.20;99.90;;;;;;4993950;28;20184;-71
2023/12/15 11:25:15;;;;;;;41.80;21.47;;;8.20;99.90;;;;;;4993986;28;20427;-72
2023/12/15 11:28:10;;;;;;;40.13;20.60;;;8.20;99.90;;;;;;4994996;28;20433;-73
2023/12/15 11:30:44;;;;;;;39.20;20.60;;;8.20;99.90;;;;;;4994321;28;20427;-72
2023/12/15 11:33:32;;;;;;;39.50;22.43;;;8.20;99.90;;;;;;5008419;28;20455;-73
2023/12/15 11:36:06;;;;;;;42.47;22.60;;;8.20;99.90;;;;;;4993364;28;20427;-74
2023/12/15 11:38:32;;;;;;;41.47;22.00;;;8.20;99.90;;;;;;4994795;28;20514;-73
2023/12/15 11:41:00;;;;;;;37.63;21.40;;;8.20;99.90;;;;;;4993410;28;20475;-73
2023/12/15 11:43:28;;;;;;;41.93;21.10;;;8.30;99.90;;;;;;4994089;28;20434;-72
2023/12/15 11:45:55;;;;;;;46.23;23.30;;;8.30;99.90;;;;;;4993580;28;20427;-75
2023/12/15 11:48:24;;;;;;;47.73;23.10;;;8.30;99.90;;;;;;4991536;28;20529;-74
2023/12/15 11:50:50;;;;;;;40.40;21.70;;;8.30;99.90;;;;;;4971108;28;20907;-73
2023/12/15 11:53:18;;;;;;;46.27;24.40;;;8.30;99.90;;;;;;4990595;28;20458;-74
2023/12/15 11:55:46;;;;;;;36.03;21.73;;;8.30;99.90;;;;;;4987547;28;20430;-73
2023/12/15 11:58:15;;;;;;;37.30;20.70;;;8.30;99.90;;;;;;4989325;28;20458;-73
2023/12/15 12:00:41;;;;;;;42.40;23.27;;;8.30;99.90;;;;;;4989725;28;20483;-74
2023/12/15 12:03:09;;;;;;;38.23;22.07;;;8.30;99.90;;;;;;4990859;28;20932;-74
2023/12/15 12:05:35;;;;;;;38.57;21.60;;;8.30;99.90;;;;;;4985050;28;20446;-73
2023/12/15 12:08:01;;;;;;;44.60;23.87;;;8.30;99.90;;;;;;4987688;28;20449;-73
2023/12/15 12:10:31;;;;;;;40.60;24.00;;;8.40;99.90;;;;;;4987628;28;20662;-74
2023/12/15 12:13:00;;;;;;;40.07;23.43;;;8.30;99.90;;;;;;4986638;28;20733;-75
2023/12/15 12:15:26;;;;;;;36.37;22.80;;;8.40;99.90;;;;;;4988336;28;20442;-73
2023/12/15 12:17:53;;;;;;;42.10;22.87;;;8.40;99.90;;;;;;4989735;28;20427;-74
2023/12/15 12:20:19;;;;;;;47.43;24.50;;;8.40;99.90;;;;;;4989961;28;20813;-74
2023/12/15 12:22:46;;;;;;;40.53;22.50;;;8.40;99.90;;;;;;4990251;28;20442;-74
2023/12/15 12:25:14;;;;;;;41.30;23.27;;;8.40;99.90;;;;;;4988980;28;21088;-75
2023/12/15 12:27:41;;;;;;;45.63;25.93;;;8.40;99.90;;;;;;4989517;28;20551;-74
2023/12/15 12:30:14;;;;;;;44.10;25.27;;;8.40;99.90;;;;;;4988468;28;20418;-73
2023/12/15 12:32:40;;;;;;;40.00;23.80;;;8.40;99.90;;;;;;4989490;28;20450;-74